Time;durP1;ratioP1;P1;durP2;ratioP2;P2;SDS_P1;SDS_P2;PMS_P1;PMS_P2;Temp;Humidity;BMP_temperature;BMP_pressure;BME280_temperature;BME280_humidity;BME280_pressure;Samples;Min_cycle;Max_cycle;Signal;HPM_P1;HPM_P2
2022/09/25 00:01:01;;;;;;;45.78;38.00;;;;;;;;;;4989120;28;20611;-76
2022/09/25 00:03:29;;;;;;;44.20;37.43;;;;;;;;;;4994215;28;20223;-75
2022/09/25 00:06:05;;;;;;;44.60;38.25;;;;;;;;;;4963451;28;20581;-76
2022/09/25 00:08:35;;;;;;;51.60;37.92;;;;;;;;;;4980592;28;20224;-76
2022/09/25 00:11:14;;;;;;;46.43;37.93;;;;;;;;;;4987451;28;20303;-76
2022/09/25 00:13:44;;;;;;;48.70;38.78;;;;;;;;;;5010494;28;20252;-76
2022/09/25 00:16:14;;;;;;;50.23;40.43;;;;;;;;;;4996061;28;20208;-76
2022/09/25 00:21:28;;;;;;;49.05;38.85;;;;;;;;;;4995331;28;20307;-77
2022/09/25 00:23:59;;;;;;;48.00;37.92;;;;;;;;;;4978116;28;20309;-76
2022/09/25 00:26:29;;;;;;;51.43;38.93;;;;;;;;;;4992814;28;20248;-75
2022/09/25 00:29:00;;;;;;;51.73;38.83;;;;;;;;;;4994712;28;20279;-76
2022/09/25 00:31:28;;;;;;;50.72;39.42;;;;;;;;;;4977870;28;20601;-76
2022/09/25 00:33:57;;;;;;;52.97;39.00;;;;;;;;;;4992478;28;20689;-76
2022/09/25 00:36:25;;;;;;;50.78;38.63;;;;;;;;;;4979043;28;20221;-75
2022/09/25 00:38:53;;;;;;;54.78;39.40;;;;;;;;;;5008691;28;20718;-75
2022/09/25 00:41:26;;;;;;;52.38;37.83;;;;;;;;;;4976476;28;20734;-76
2022/09/25 00:43:55;;;;;;;57.00;39.33;;;;;;;;;;5001526;28;20307;-76
2022/09/25 00:46:52;;;;;;;65.75;40.22;;;;;;;;;;4996557;28;20216;-76
2022/09/25 00:49:20;;;;;;;50.50;39.03;;;;;;;;;;4978386;28;20274;-76
2022/09/25 00:51:50;;;;;;;62.43;40.73;;;;;;;;;;4975704;28;20332;-75
2022/09/25 00:54:17;;;;;;;55.83;40.83;;;;;;;;;;4992924;28;20271;-77
2022/09/25 00:56:43;;;;;;;69.47;40.73;;;;;;;;;;5010934;28;20220;-75
2022/09/25 00:59:12;;;;;;;61.23;41.43;;;;;;;;;;4993754;28;20232;-76
2022/09/25 01:01:37;;;;;;;77.87;41.70;;;;;;;;;;4965633;28;20302;-77
2022/09/25 01:04:05;;;;;;;70.50;42.03;;;;;;;;;;4996075;28;20629;-75
2022/09/25 01:06:32;;;;;;;62.80;41.67;;;;;;;;;;4977311;28;20220;-76
2022/09/25 01:08:58;;;;;;;63.87;41.43;;;;;;;;;;4993926;28;20244;-76
2022/09/25 01:11:26;;;;;;;65.40;42.07;;;;;;;;;;4975442;28;20251;-76
2022/09/25 01:13:57;;;;;;;74.70;42.30;;;;;;;;;;4993852;28;20244;-75
2022/09/25 01:16:36;;;;;;;70.77;41.33;;;;;;;;;;4986558;28;20213;-74
2022/09/25 01:19:37;;;;;;;69.80;40.70;;;;;;;;;;5002637;28;20225;-75
2022/09/25 01:22:17;;;;;;;84.70;43.33;;;;;;;;;;5008775;28;20706;-75
2022/09/25 01:24:43;;;;;;;75.97;40.07;;;;;;;;;;4997195;28;20680;-76
2022/09/25 01:27:36;;;;;;;62.80;41.10;;;;;;;;;;4961197;28;20244;-76
2022/09/25 01:30:09;;;;;;;66.97;40.97;;;;;;;;;;5010919;28;20236;-76
2022/09/25 01:32:51;;;;;;;62.17;40.03;;;;;;;;;;4991672;28;20910;-75
2022/09/25 01:35:43;;;;;;;61.38;38.97;;;;;;;;;;4987231;28;20290;-76
2022/09/25 01:38:32;;;;;;;62.27;41.07;;;;;;;;;;4997599;28;20261;-75
2022/09/25 01:41:07;;;;;;;56.27;37.70;;;;;;;;;;5010227;28;20252;-75
2022/09/25 01:43:37;;;;;;;60.47;39.67;;;;;;;;;;5009941;28;20229;-76
2022/09/25 01:46:10;;;;;;;55.67;39.67;;;;;;;;;;4959292;28;20237;-75
2022/09/25 01:48:36;;;;;;;58.37;39.17;;;;;;;;;;4997062;28;20263;-76
2022/09/25 01:51:09;;;;;;;59.53;39.43;;;;;;;;;;4997232;28;20225;-75
2022/09/25 01:53:41;;;;;;;60.90;40.37;;;;;;;;;;4993394;28;20236;-75
2022/09/25 01:56:21;;;;;;;55.07;38.23;;;;;;;;;;4988992;28;20695;-75
2022/09/25 01:58:52;;;;;;;60.10;41.10;;;;;;;;;;4978807;28;20282;-76
2022/09/25 02:01:22;;;;;;;61.03;40.10;;;;;;;;;;4946133;28;20229;-77
2022/09/25 02:03:57;;;;;;;59.47;39.73;;;;;;;;;;4977652;28;20224;-77
2022/09/25 02:06:23;;;;;;;65.93;41.63;;;;;;;;;;4975784;28;20258;-76
2022/09/25 02:08:56;;;;;;;66.80;40.70;;;;;;;;;;4965821;28;20217;-76
2022/09/25 02:11:27;;;;;;;58.97;40.70;;;;;;;;;;4975572;28;20285;-76
2022/09/25 02:14:01;;;;;;;63.27;39.73;;;;;;;;;;4976583;28;20232;-77
2022/09/25 02:16:31;;;;;;;53.03;38.23;;;;;;;;;;4976991;28;20227;-77
2022/09/25 02:21:47;;;;;;;58.47;38.40;;;;;;;;;;4999408;28;20225;-77
2022/09/25 02:24:23;;;;;;;66.30;39.00;;;;;;;;;;4995616;28;20228;-76
2022/09/25 02:26:54;;;;;;;57.90;38.93;;;;;;;;;;4980356;28;20229;-77
2022/09/25 02:29:22;;;;;;;60.87;40.03;;;;;;;;;;4995255;28;20630;-77
2022/09/25 02:31:52;;;;;;;56.40;37.13;;;;;;;;;;4984889;28;20293;-77
2022/09/25 02:34:20;;;;;;;50.73;35.60;;;;;;;;;;4978725;28;20224;-76
2022/09/25 02:36:45;;;;;;;46.97;33.90;;;;;;;;;;4993506;28;20224;-75
2022/09/25 02:39:15;;;;;;;35.17;27.97;;;;;;;;;;4985182;28;20237;-74
2022/09/25 02:41:46;;;;;;;29.30;25.13;;;;;;;;;;4995541;28;20228;-76
2022/09/25 02:44:45;;;;;;;32.93;26.00;;;;;;;;;;5009505;28;20324;-74
2022/09/25 02:47:27;;;;;;;36.50;26.80;;;;;;;;;;5008467;28;20224;-75
2022/09/25 02:50:08;;;;;;;35.90;26.77;;;;;;;;;;4987555;28;20372;-75
2022/09/25 02:52:36;;;;;;;57.67;28.10;;;;;;;;;;5008672;28;20251;-76
2022/09/25 02:55:22;;;;;;;75.67;28.07;;;;;;;;;;5008162;28;20217;-77
2022/09/25 02:57:56;;;;;;;67.67;29.73;;;;;;;;;;5009804;28;20315;-77
2022/09/25 03:00:22;;;;;;;85.70;29.13;;;;;;;;;;5005106;28;20235;-76
2022/09/25 03:02:52;;;;;;;69.40;29.70;;;;;;;;;;4980476;28;20225;-76
2022/09/25 03:05:22;;;;;;;88.00;30.17;;;;;;;;;;4993071;28;20224;-76
2022/09/25 03:10:44;;;;;;;85.97;29.97;;;;;;;;;;4980575;28;20225;-77
2022/09/25 03:13:32;;;;;;;70.63;29.63;;;;;;;;;;4976735;28;20225;-76
2022/09/25 03:16:04;;;;;;;77.90;30.87;;;;;;;;;;4983425;28;21244;-77
2022/09/25 03:18:32;;;;;;;66.93;29.87;;;;;;;;;;5008464;28;20304;-76
2022/09/25 03:21:00;;;;;;;59.73;30.70;;;;;;;;;;4962044;28;20221;-76
2022/09/25 03:23:27;;;;;;;62.27;30.30;;;;;;;;;;4974956;28;20221;-76
2022/09/25 03:25:53;;;;;;;44.93;31.27;;;;;;;;;;4960356;28;20220;-75
2022/09/25 03:28:21;;;;;;;40.33;28.80;;;;;;;;;;4995087;28;20225;-77
2022/09/25 03:31:02;;;;;;;39.63;29.70;;;;;;;;;;4960730;28;20565;-76
2022/09/25 03:33:29;;;;;;;37.23;27.70;;;;;;;;;;5007741;28;20598;-76
2022/09/25 03:36:09;;;;;;;30.40;22.90;;;;;;;;;;4978559;28;20212;-76
2022/09/25 03:38:51;;;;;;;30.67;22.23;;;;;;;;;;5008798;28;20232;-75
2022/09/25 03:41:18;;;;;;;39.10;21.03;;;;;;;;;;4995144;28;20786;-73
2022/09/25 03:43:50;;;;;;;36.23;18.83;;;;;;;;;;4986681;28;20729;-76
2022/09/25 03:46:16;;;;;;;28.00;17.10;;;;;;;;;;4963408;28;20217;-75
2022/09/25 03:48:42;;;;;;;28.20;17.80;;;;;;;;;;4965768;28;20217;-76
2022/09/25 03:51:10;;;;;;;25.40;15.83;;;;;;;;;;4981002;28;20243;-75
2022/09/25 03:53:39;;;;;;;14.87;11.17;;;;;;;;;;4988261;28;20236;-75
2022/09/25 03:56:06;;;;;;;14.37;10.17;;;;;;;;;;4979976;28;20274;-76
2022/09/25 03:58:32;;;;;;;16.03;10.17;;;;;;;;;;4977126;28;20255;-74
2022/09/25 04:01:00;;;;;;;12.27;10.30;;;;;;;;;;4978264;28;20229;-75
2022/09/25 04:03:28;;;;;;;10.37;9.30;;;;;;;;;;4991914;28;20220;-76
2022/09/25 04:06:00;;;;;;;10.43;9.27;;;;;;;;;;4979807;28;20706;-75
2022/09/25 04:08:28;;;;;;;11.50;10.03;;;;;;;;;;4995029;28;20228;-75
2022/09/25 04:11:00;;;;;;;10.23;9.23;;;;;;;;;;4977704;28;20311;-76
2022/09/25 04:13:28;;;;;;;10.77;9.67;;;;;;;;;;5007368;28;20598;-75
2022/09/25 04:15:55;;;;;;;9.33;8.50;;;;;;;;;;4995630;28;20229;-74
2022/09/25 04:18:21;;;;;;;10.27;9.20;;;;;;;;;;4991351;28;20598;-74
2022/09/25 04:20:49;;;;;;;10.53;9.60;;;;;;;;;;4992949;28;20262;-75
2022/09/25 04:23:17;;;;;;;9.83;8.93;;;;;;;;;;4978381;28;20243;-75
2022/09/25 04:25:44;;;;;;;10.13;9.13;;;;;;;;;;4980898;28;20252;-75
2022/09/25 04:28:12;;;;;;;10.20;9.20;;;;;;;;;;4992290;28;20339;-75
2022/09/25 04:30:37;;;;;;;10.53;9.53;;;;;;;;;;5008425;28;20255;-75
2022/09/25 04:35:54;;;;;;;11.37;9.47;;;;;;;;;;4979359;28;20256;-76
2022/09/25 04:38:20;;;;;;;10.90;9.80;;;;;;;;;;4964971;28;20236;-76
2022/09/25 04:40:45;;;;;;;11.70;9.90;;;;;;;;;;4977243;28;20259;-75
2022/09/25 04:43:11;;;;;;;10.63;9.53;;;;;;;;;;4991276;28;20233;-75
2022/09/25 04:45:36;;;;;;;12.27;11.17;;;;;;;;;;4980164;28;20766;-75
2022/09/25 04:48:02;;;;;;;10.87;9.77;;;;;;;;;;4999341;28;20233;-75
2022/09/25 04:50:31;;;;;;;11.70;10.60;;;;;;;;;;4983052;28;20359;-76
2022/09/25 04:53:02;;;;;;;11.57;10.53;;;;;;;;;;4979814;28;20251;-76
2022/09/25 04:55:28;;;;;;;10.10;9.20;;;;;;;;;;4982837;28;20224;-75
2022/09/25 04:57:57;;;;;;;9.37;8.47;;;;;;;;;;4982161;28;20221;-75
2022/09/25 05:00:23;;;;;;;7.73;7.03;;;;;;;;;;4962059;28;23455;-76
2022/09/25 05:02:48;;;;;;;7.13;6.53;;;;;;;;;;4999817;28;20228;-76
2022/09/25 05:05:16;;;;;;;7.27;6.57;;;;;;;;;;4994106;28;20266;-76
2022/09/25 05:07:54;;;;;;;6.30;5.80;;;;;;;;;;4995403;28;20220;-76
2022/09/25 05:10:26;;;;;;;4.83;4.43;;;;;;;;;;4979579;28;20224;-75
2022/09/25 05:13:00;;;;;;;4.97;4.57;;;;;;;;;;4962356;28;20236;-76
2022/09/25 05:15:26;;;;;;;4.47;3.90;;;;;;;;;;4994350;28;20244;-75
2022/09/25 05:18:25;;;;;;;3.60;3.40;;;;;;;;;;4968221;28;20224;-75
2022/09/25 05:20:52;;;;;;;3.87;3.43;;;;;;;;;;4995752;28;20244;-75
2022/09/25 05:23:17;;;;;;;3.27;3.00;;;;;;;;;;4980593;28;20232;-75
2022/09/25 05:25:43;;;;;;;3.97;2.83;;;;;;;;;;4967432;28;20217;-75
2022/09/25 05:28:08;;;;;;;2.70;2.50;;;;;;;;;;4995922;28;20227;-75
2022/09/25 05:30:37;;;;;;;3.00;2.80;;;;;;;;;;4976868;28;20221;-75
2022/09/25 05:33:02;;;;;;;2.80;2.60;;;;;;;;;;4975742;28;20304;-76
2022/09/25 05:35:31;;;;;;;2.83;2.63;;;;;;;;;;4983460;28;20678;-76
2022/09/25 05:37:57;;;;;;;3.17;2.97;;;;;;;;;;5012257;28;20267;-74
2022/09/25 05:40:23;;;;;;;3.97;3.67;;;;;;;;;;4994302;28;20240;-74
2022/09/25 05:42:48;;;;;;;3.93;3.73;;;;;;;;;;4982720;28;20279;-74
2022/09/25 05:45:19;;;;;;;4.83;4.53;;;;;;;;;;4981879;28;20224;-75
2022/09/25 05:47:45;;;;;;;5.40;5.00;;;;;;;;;;4993097;28;20288;-75
2022/09/25 05:50:12;;;;;;;6.10;5.70;;;;;;;;;;4979973;28;20232;-74
2022/09/25 05:52:38;;;;;;;6.17;5.77;;;;;;;;;;4993909;28;20228;-75
2022/09/25 05:55:05;;;;;;;6.93;6.40;;;;;;;;;;4995217;28;20232;-75
2022/09/25 05:57:34;;;;;;;6.87;6.37;;;;;;;;;;4982933;28;20214;-75
2022/09/25 06:00:00;;;;;;;7.00;6.50;;;;;;;;;;4979612;28;20255;-75
2022/09/25 06:02:30;;;;;;;7.70;7.10;;;;;;;;;;4975251;28;20256;-76
2022/09/25 06:04:58;;;;;;;7.80;7.20;;;;;;;;;;4976467;28;20263;-75
2022/09/25 06:07:24;;;;;;;8.60;7.90;;;;;;;;;;4994496;28;20277;-75
2022/09/25 06:09:51;;;;;;;9.23;8.33;;;;;;;;;;4985957;28;20224;-76
2022/09/25 06:12:21;;;;;;;8.77;8.07;;;;;;;;;;5009876;28;20333;-76
2022/09/25 06:14:47;;;;;;;9.33;8.53;;;;;;;;;;4993859;28;20714;-76
2022/09/25 06:17:13;;;;;;;9.37;8.57;;;;;;;;;;4976862;28;20228;-75
2022/09/25 06:19:40;;;;;;;9.87;9.07;;;;;;;;;;4977712;28;20251;-76
2022/09/25 06:22:06;;;;;;;10.83;9.90;;;;;;;;;;4970237;28;20232;-75
2022/09/25 06:24:36;;;;;;;10.67;9.77;;;;;;;;;;4959320;28;20221;-75
2022/09/25 06:27:06;;;;;;;11.23;10.13;;;;;;;;;;4995688;28;20725;-75
2022/09/25 06:29:34;;;;;;;11.17;10.17;;;;;;;;;;4975649;28;20221;-76
2022/09/25 06:32:00;;;;;;;11.60;10.57;;;;;;;;;;4993721;28;20224;-75
2022/09/25 06:34:28;;;;;;;12.43;11.07;;;;;;;;;;4988172;28;20213;-76
2022/09/25 06:36:56;;;;;;;12.53;11.33;;;;;;;;;;4990506;28;20260;-75
2022/09/25 06:39:23;;;;;;;12.50;11.33;;;;;;;;;;4974848;28;20243;-76
2022/09/25 06:41:51;;;;;;;14.53;13.13;;;;;;;;;;4976874;28;20232;-76
2022/09/25 06:44:20;;;;;;;14.00;12.70;;;;;;;;;;4993017;28;20216;-76
2022/09/25 06:46:53;;;;;;;14.37;12.90;;;;;;;;;;4992457;28;20223;-75
2022/09/25 06:49:19;;;;;;;13.90;12.50;;;;;;;;;;4979557;28;20216;-75
2022/09/25 06:51:46;;;;;;;13.93;12.10;;;;;;;;;;4986389;28;20650;-75
2022/09/25 06:54:12;;;;;;;14.20;12.70;;;;;;;;;;4939794;28;20245;-75
2022/09/25 06:56:38;;;;;;;12.80;11.60;;;;;;;;;;4979893;28;20944;-76
2022/09/25 06:59:03;;;;;;;12.60;11.30;;;;;;;;;;4981908;28;20250;-76
2022/09/25 07:01:31;;;;;;;13.63;12.33;;;;;;;;;;4981784;28;20591;-75
2022/09/25 07:04:04;;;;;;;12.67;11.37;;;;;;;;;;4982543;28;20240;-76
2022/09/25 07:06:36;;;;;;;13.93;12.10;;;;;;;;;;4972706;28;20217;-75
2022/09/25 07:09:02;;;;;;;12.07;10.97;;;;;;;;;;4973757;28;20213;-75
2022/09/25 07:11:28;;;;;;;13.13;11.83;;;;;;;;;;4977857;28;20604;-75
2022/09/25 07:13:56;;;;;;;12.20;11.10;;;;;;;;;;4971093;28;20221;-76
2022/09/25 07:16:25;;;;;;;12.23;11.13;;;;;;;;;;4976942;28;20212;-75
2022/09/25 07:18:56;;;;;;;12.30;11.00;;;;;;;;;;4997035;28;20225;-74
2022/09/25 07:21:26;;;;;;;12.93;11.57;;;;;;;;;;4984757;28;20229;-75
2022/09/25 07:23:52;;;;;;;13.03;11.83;;;;;;;;;;4958288;28;20227;-75
2022/09/25 07:26:23;;;;;;;12.67;11.47;;;;;;;;;;5011831;28;20220;-74
2022/09/25 07:28:56;;;;;;;11.77;10.67;;;;;;;;;;4983185;28;20231;-74
2022/09/25 07:31:25;;;;;;;13.10;11.87;;;;;;;;;;4961448;28;20792;-74
2022/09/25 07:33:51;;;;;;;12.43;11.33;;;;;;;;;;4991609;28;20686;-76
2022/09/25 07:36:17;;;;;;;12.97;11.40;;;;;;;;;;4993334;28;20224;-74
2022/09/25 07:38:44;;;;;;;13.30;11.93;;;;;;;;;;4961636;28;20220;-72
2022/09/25 07:41:12;;;;;;;13.10;11.70;;;;;;;;;;4986412;28;20686;-74
2022/09/25 07:43:37;;;;;;;13.53;12.33;;;;;;;;;;4949647;28;20228;-74
2022/09/25 07:46:04;;;;;;;14.13;12.83;;;;;;;;;;4993960;28;20233;-75
2022/09/25 07:48:30;;;;;;;13.30;12.10;;;;;;;;;;4977923;28;20221;-74
2022/09/25 07:51:00;;;;;;;14.03;12.57;;;;;;;;;;4957406;28;20223;-75
2022/09/25 07:53:25;;;;;;;13.40;12.20;;;;;;;;;;4991360;28;20228;-75
2022/09/25 07:55:51;;;;;;;13.50;12.30;;;;;;;;;;4990964;28;20228;-72
2022/09/25 07:58:18;;;;;;;12.97;11.60;;;;;;;;;;4974574;28;20217;-75
2022/09/25 08:00:46;;;;;;;12.23;11.13;;;;;;;;;;4975354;28;20277;-75
2022/09/25 08:03:14;;;;;;;10.77;9.80;;;;;;;;;;5009709;28;20765;-76
2022/09/25 08:05:42;;;;;;;10.73;9.83;;;;;;;;;;4954587;28;20240;-76
2022/09/25 08:08:08;;;;;;;11.70;10.60;;;;;;;;;;4974954;28;20722;-76
2022/09/25 08:10:36;;;;;;;14.43;13.10;;;;;;;;;;4992989;28;20240;-75
2022/09/25 08:13:03;;;;;;;11.80;10.70;;;;;;;;;;4972932;28;20242;-76
2022/09/25 08:15:29;;;;;;;11.10;10.20;;;;;;;;;;5007006;28;20265;-75
2022/09/25 08:17:54;;;;;;;11.20;10.20;;;;;;;;;;4976706;28;20225;-76
2022/09/25 08:20:20;;;;;;;10.60;9.70;;;;;;;;;;4962057;28;20228;-77
2022/09/25 08:22:48;;;;;;;11.40;10.17;;;;;;;;;;4998895;28;20224;-74
2022/09/25 08:25:13;;;;;;;11.47;10.37;;;;;;;;;;4989323;28;20244;-75
2022/09/25 08:27:42;;;;;;;11.03;10.03;;;;;;;;;;4980986;28;20367;-74
2022/09/25 08:30:08;;;;;;;10.73;9.70;;;;;;;;;;5011100;28;20232;-73
2022/09/25 08:32:35;;;;;;;10.33;9.43;;;;;;;;;;4995327;28;20217;-74
2022/09/25 08:35:03;;;;;;;10.47;9.67;;;;;;;;;;4992196;28;20225;-73
2022/09/25 08:37:31;;;;;;;10.63;9.67;;;;;;;;;;4991275;28;20247;-73
2022/09/25 08:39:58;;;;;;;9.40;8.60;;;;;;;;;;4980117;28;20225;-74
2022/09/25 08:42:30;;;;;;;9.63;8.73;;;;;;;;;;4977619;28;20245;-75
2022/09/25 08:50:29;;;;;;;8.70;7.90;;;;;;;;;;4983596;28;20293;-76
2022/09/25 08:53:16;;;;;;;9.07;8.37;;;;;;;;;;4994178;28;20232;-75
2022/09/25 08:58:41;;;;;;;9.57;8.77;;;;;;;;;;4982481;28;20721;-75
2022/09/25 09:01:34;;;;;;;10.20;9.30;;;;;;;;;;4995248;28;20229;-75
2022/09/25 09:04:08;;;;;;;9.10;8.33;;;;;;;;;;4983099;28;20228;-75
2022/09/25 09:06:33;;;;;;;9.93;9.03;;;;;;;;;;5006947;28;20236;-75
2022/09/25 09:09:05;;;;;;;9.70;8.90;;;;;;;;;;4963480;28;20221;-75
2022/09/25 09:11:35;;;;;;;9.87;9.07;;;;;;;;;;4995703;28;20299;-75
2022/09/25 09:14:05;;;;;;;9.80;9.00;;;;;;;;;;4966018;28;20252;-76
2022/09/25 09:16:42;;;;;;;10.40;9.53;;;;;;;;;;4978600;28;20266;-76
2022/09/25 09:19:09;;;;;;;9.00;8.30;;;;;;;;;;4983013;28;20252;-73
2022/09/25 09:21:35;;;;;;;8.43;7.50;;;;;;;;;;4980651;28;20295;-73
2022/09/25 09:24:04;;;;;;;8.10;7.50;;;;;;;;;;4981453;28;20606;-72
2022/09/25 09:26:38;;;;;;;7.70;7.10;;;;;;;;;;4995098;28;20221;-75
2022/09/25 09:29:37;;;;;;;7.77;7.17;;;;;;;;;;4990709;28;20636;-76
2022/09/25 09:32:10;;;;;;;11.60;10.60;;;;;;;;;;4973844;28;20330;-76
2022/09/25 09:34:42;;;;;;;36.17;27.30;;;;;;;;;;4996953;28;20255;-76
2022/09/25 09:37:17;;;;;;;10.07;9.07;;;;;;;;;;4984063;28;20213;-73
2022/09/25 09:39:57;;;;;;;9.63;8.93;;;;;;;;;;4977113;28;20788;-76
2022/09/25 09:42:42;;;;;;;10.00;9.20;;;;;;;;;;4991463;28;20263;-75
2022/09/25 09:45:43;;;;;;;9.87;8.87;;;;;;;;;;4978546;28;20221;-76
2022/09/25 09:48:28;;;;;;;8.73;8.10;;;;;;;;;;4933618;28;20221;-75
2022/09/25 09:51:08;;;;;;;17.77;16.07;;;;;;;;;;4995468;28;20315;-75
2022/09/25 09:53:44;;;;;;;18.97;17.13;;;;;;;;;;4974780;28;20274;-76
2022/09/25 09:56:22;;;;;;;15.23;13.73;;;;;;;;;;4991886;28;20281;-75
2022/09/25 09:59:39;;;;;;;14.40;13.20;;;;;;;;;;4960445;28;20224;-75
2022/09/25 10:02:33;;;;;;;12.20;11.10;;;;;;;;;;4912745;29;20279;-75
2022/09/25 10:05:06;;;;;;;13.30;12.00;;;;;;;;;;4982952;28;20225;-74
2022/09/25 10:07:35;;;;;;;13.00;11.90;;;;;;;;;;4980379;28;20239;-74
2022/09/25 10:10:04;;;;;;;12.60;11.50;;;;;;;;;;4976243;28;20233;-75
2022/09/25 10:12:33;;;;;;;14.80;13.60;;;;;;;;;;4976016;28;20724;-74
2022/09/25 10:15:05;;;;;;;15.90;14.50;;;;;;;;;;4975167;28;20691;-74
2022/09/25 10:17:30;;;;;;;15.90;14.50;;;;;;;;;;4988232;28;20224;-73
2022/09/25 10:20:00;;;;;;;16.43;14.93;;;;;;;;;;4962172;28;20237;-75
2022/09/25 10:22:47;;;;;;;16.33;13.00;;;;;;;;;;4987065;28;20268;-75
2022/09/25 10:25:12;;;;;;;14.02;12.60;;;;;;;;;;4997796;28;20224;-75
2022/09/25 10:27:40;;;;;;;13.63;12.37;;;;;;;;;;5009849;28;20217;-76
2022/09/25 10:30:08;;;;;;;13.48;12.02;;;;;;;;;;5013878;28;20290;-75
2022/09/25 10:32:40;;;;;;;11.80;10.80;;;;;;;;;;4996500;28;20702;-74
2022/09/25 10:35:18;;;;;;;11.30;10.30;;;;;;;;;;4994771;28;20228;-75
2022/09/25 10:37:44;;;;;;;11.35;10.25;;;;;;;;;;4962362;28;20244;-73
2022/09/25 10:40:24;;;;;;;11.52;10.13;;;;;;;;;;4975663;28;20224;-74
2022/09/25 10:43:11;;;;;;;10.87;9.60;;;;;;;;;;4976858;28;20760;-75
2022/09/25 10:45:39;;;;;;;11.75;10.10;;;;;;;;;;4991981;28;20225;-76
2022/09/25 10:51:20;;;;;;;11.10;10.03;;;;;;;;;;5001768;28;20316;-74
2022/09/25 10:54:07;;;;;;;11.07;10.13;;;;;;;;;;4975143;28;20248;-76
2022/09/25 10:56:37;;;;;;;9.77;8.87;;;;;;;;;;4992960;28;20223;-77
2022/09/25 10:59:12;;;;;;;9.88;8.98;;;;;;;;;;4962719;28;20224;-74
2022/09/25 11:01:39;;;;;;;9.75;8.77;;;;;;;;;;4992441;28;21032;-76
2022/09/25 11:04:11;;;;;;;15.63;14.03;;;;;;;;;;4976341;28;20247;-72
2022/09/25 11:06:42;;;;;;;19.02;17.23;;;;;;;;;;5006507;28;20620;-74
2022/09/25 11:09:18;;;;;;;9.57;8.73;;;;;;;;;;4994475;28;20710;-72
2022/09/25 11:11:47;;;;;;;12.73;11.55;;;;;;;;;;4974120;28;20289;-74
2022/09/25 11:14:31;;;;;;;10.80;9.80;;;;;;;;;;4993419;28;20213;-74
2022/09/25 11:17:04;;;;;;;9.70;8.70;;;;;;;;;;4976453;28;20761;-72
2022/09/25 11:19:39;;;;;;;9.43;8.57;;;;;;;;;;4994786;28;20769;-75
2022/09/25 11:22:24;;;;;;;11.30;10.17;;;;;;;;;;4974479;28;20224;-73
2022/09/25 11:25:02;;;;;;;9.43;8.57;;;;;;;;;;4975061;28;20228;-73
2022/09/25 11:27:45;;;;;;;8.60;7.80;;;;;;;;;;4975308;28;20232;-73
2022/09/25 11:30:14;;;;;;;8.00;7.30;;;;;;;;;;4997087;28;20247;-75
2022/09/25 11:33:00;;;;;;;7.50;6.90;;;;;;;;;;4980148;28;20233;-73
2022/09/25 11:35:36;;;;;;;8.33;6.10;;;;;;;;;;4997165;28;20217;-73
2022/09/25 11:38:01;;;;;;;8.43;6.50;;;;;;;;;;5004594;28;20225;-73
2022/09/25 11:43:39;;;;;;;7.18;6.13;;;;;;;;;;5008631;28;20264;-75
2022/09/25 11:46:18;;;;;;;8.18;6.55;;;;;;;;;;4993261;28;20238;-75
2022/09/25 11:48:53;;;;;;;6.83;6.23;;;;;;;;;;4990764;28;20239;-73
2022/09/25 11:51:27;;;;;;;7.80;6.40;;;;;;;;;;4994124;28;20216;-75
2022/09/25 11:54:17;;;;;;;9.07;6.03;;;;;;;;;;5010512;28;20907;-75
2022/09/25 11:56:55;;;;;;;6.70;5.73;;;;;;;;;;4971914;28;20221;-75
2022/09/25 11:59:38;;;;;;;7.17;4.83;;;;;;;;;;4980702;28;20658;-73
2022/09/25 12:02:31;;;;;;;7.20;5.00;;;;;;;;;;5010538;28;20232;-74
2022/09/25 12:04:58;;;;;;;5.67;4.60;;;;;;;;;;4993755;28;20671;-73
2022/09/25 12:08:03;;;;;;;4.87;4.07;;;;;;;;;;4996103;28;20697;-76
2022/09/25 12:10:45;;;;;;;4.83;3.80;;;;;;;;;;5011848;28;20224;-73
2022/09/25 12:13:26;;;;;;;5.80;3.97;;;;;;;;;;4990626;28;20229;-74
2022/09/25 12:16:10;;;;;;;4.60;3.30;;;;;;;;;;4993324;28;20256;-74
2022/09/25 12:18:46;;;;;;;3.63;3.30;;;;;;;;;;4979647;28;20217;-73
2022/09/25 12:21:37;;;;;;;3.87;3.40;;;;;;;;;;4996431;28;20216;-75
2022/09/25 12:24:22;;;;;;;3.73;2.90;;;;;;;;;;4990732;28;20800;-74
2022/09/25 12:27:15;;;;;;;5.07;2.60;;;;;;;;;;5012980;28;20217;-74
2022/09/25 12:29:41;;;;;;;3.93;2.50;;;;;;;;;;5011534;28;20231;-74
2022/09/25 12:32:24;;;;;;;3.33;2.30;;;;;;;;;;4993858;28;20229;-74
2022/09/25 12:35:06;;;;;;;5.47;2.30;;;;;;;;;;5010286;28;20216;-74
2022/09/25 12:37:42;;;;;;;2.73;2.17;;;;;;;;;;4995835;28;20237;-76
2022/09/25 12:40:14;;;;;;;3.37;1.90;;;;;;;;;;5009495;28;20220;-76
2022/09/25 12:42:48;;;;;;;2.23;1.60;;;;;;;;;;4980564;28;20232;-75
2022/09/25 12:45:44;;;;;;;2.45;1.70;;;;;;;;;;4994602;28;20308;-75
2022/09/25 12:48:11;;;;;;;3.20;2.35;;;;;;;;;;4945019;28;20267;-75
2022/09/25 12:50:54;;;;;;;1.80;1.57;;;;;;;;;;5012409;28;20224;-74
2022/09/25 12:53:58;;;;;;;4.50;1.47;;;;;;;;;;4992709;28;20703;-75
2022/09/25 12:56:55;;;;;;;1.93;1.27;;;;;;;;;;4966548;28;20224;-74
2022/09/25 12:59:22;;;;;;;2.20;1.50;;;;;;;;;;4958082;28;20218;-74
2022/09/25 13:02:02;;;;;;;3.87;1.70;;;;;;;;;;4978757;28;20315;-75
2022/09/25 13:04:43;;;;;;;1.58;1.40;;;;;;;;;;4994186;28;20259;-76
2022/09/25 13:07:42;;;;;;;1.57;1.13;;;;;;;;;;4974550;28;20307;-75
2022/09/25 13:10:23;;;;;;;1.77;1.30;;;;;;;;;;4984197;28;20222;-73
2022/09/25 13:12:48;;;;;;;2.55;0.90;;;;;;;;;;5010716;28;20236;-77
2022/09/25 13:15:23;;;;;;;1.33;1.00;;;;;;;;;;4996231;28;20221;-74
2022/09/25 13:17:49;;;;;;;1.10;0.90;;;;;;;;;;4996306;28;20598;-75
2022/09/25 13:20:30;;;;;;;1.70;0.90;;;;;;;;;;4963265;28;20225;-74
2022/09/25 13:22:58;;;;;;;1.63;0.97;;;;;;;;;;5008840;28;20251;-75
2022/09/25 13:25:29;;;;;;;1.97;0.70;;;;;;;;;;5009811;28;20221;-74
2022/09/25 13:27:54;;;;;;;1.97;0.80;;;;;;;;;;4979059;28;20225;-76
2022/09/25 13:30:24;;;;;;;0.80;0.63;;;;;;;;;;4984325;28;20765;-75
2022/09/25 13:32:51;;;;;;;2.40;0.80;;;;;;;;;;4997195;28;20229;-75
2022/09/25 13:35:17;;;;;;;2.17;0.83;;;;;;;;;;4951196;28;20286;-75
2022/09/25 13:37:45;;;;;;;1.80;0.80;;;;;;;;;;4969209;28;20221;-79
2022/09/25 13:43:23;;;;;;;1.80;1.03;;;;;;;;;;4983391;28;20255;-77
2022/09/25 13:46:22;;;;;;;2.60;1.10;;;;;;;;;;4994201;28;20255;-76
2022/09/25 13:48:47;;;;;;;0.83;0.80;;;;;;;;;;5008581;28;20229;-75
2022/09/25 13:51:18;;;;;;;1.27;1.00;;;;;;;;;;4992657;28;20910;-73
2022/09/25 13:54:04;;;;;;;1.70;1.05;;;;;;;;;;4993595;28;20320;-74
2022/09/25 13:56:32;;;;;;;2.13;1.03;;;;;;;;;;4993880;28;20227;-72
2022/09/25 13:59:23;;;;;;;4.97;0.90;;;;;;;;;;5008662;28;20217;-75
2022/09/25 14:01:56;;;;;;;2.13;0.90;;;;;;;;;;4978876;28;20256;-75
2022/09/25 14:04:37;;;;;;;1.40;1.00;;;;;;;;;;4961607;28;20235;-73
2022/09/25 14:07:11;;;;;;;1.90;1.10;;;;;;;;;;4992906;28;20785;-77
2022/09/25 14:09:41;;;;;;;2.45;1.20;;;;;;;;;;4996881;28;20350;-76
2022/09/25 14:12:24;;;;;;;2.80;1.08;;;;;;;;;;4976211;28;20234;-77
2022/09/25 14:14:56;;;;;;;2.65;1.23;;;;;;;;;;4985192;28;20236;-75
2022/09/25 14:17:22;;;;;;;1.52;1.00;;;;;;;;;;4995665;28;20213;-74
2022/09/25 14:19:54;;;;;;;2.95;1.30;;;;;;;;;;4988975;28;20236;-75
2022/09/25 14:22:45;;;;;;;2.17;0.73;;;;;;;;;;4960407;28;20737;-76
2022/09/25 14:25:31;;;;;;;2.58;1.02;;;;;;;;;;5009521;28;20655;-76
2022/09/25 14:27:58;;;;;;;1.48;0.90;;;;;;;;;;4963652;28;20220;-75
2022/09/25 14:30:28;;;;;;;1.00;0.90;;;;;;;;;;4979270;28;20229;-76
2022/09/25 14:33:08;;;;;;;3.97;1.00;;;;;;;;;;4978750;28;20291;-76
2022/09/25 14:35:52;;;;;;;1.77;0.90;;;;;;;;;;5008831;28;20238;-74
2022/09/25 14:38:41;;;;;;;1.73;0.77;;;;;;;;;;5008526;28;20236;-73
2022/09/25 14:41:25;;;;;;;3.25;0.80;;;;;;;;;;4987387;28;20245;-75
2022/09/25 14:44:08;;;;;;;1.48;0.90;;;;;;;;;;5004675;28;20221;-72
2022/09/25 14:46:36;;;;;;;2.13;1.05;;;;;;;;;;4962458;28;20287;-73
2022/09/25 14:49:17;;;;;;;4.00;1.50;;;;;;;;;;4996011;28;20275;-73
2022/09/25 14:51:43;;;;;;;2.92;1.13;;;;;;;;;;4989141;28;20682;-72
2022/09/25 14:54:17;;;;;;;5.82;1.10;;;;;;;;;;4975146;28;20299;-73
2022/09/25 14:56:49;;;;;;;2.53;1.13;;;;;;;;;;4989535;28;20220;-73
2022/09/25 14:59:41;;;;;;;2.20;1.05;;;;;;;;;;4974584;28;20457;-72
2022/09/25 15:02:32;;;;;;;1.38;1.05;;;;;;;;;;4993887;28;20228;-74
2022/09/25 15:04:58;;;;;;;4.82;1.30;;;;;;;;;;4992295;28;20666;-73
2022/09/25 15:07:24;;;;;;;1.45;1.15;;;;;;;;;;4961974;28;20300;-74
2022/09/25 15:09:54;;;;;;;1.48;1.15;;;;;;;;;;4995743;28;20315;-73
2022/09/25 15:12:24;;;;;;;5.32;2.83;;;;;;;;;;4960169;28;20435;-73
2022/09/25 15:15:15;;;;;;;4.65;1.65;;;;;;;;;;4973946;28;20236;-73
2022/09/25 15:17:46;;;;;;;3.50;2.45;;;;;;;;;;4994019;28;20227;-73
2022/09/25 15:20:16;;;;;;;2.97;1.60;;;;;;;;;;4995534;28;20228;-73
2022/09/25 15:22:45;;;;;;;3.17;1.48;;;;;;;;;;4962112;28;20220;-74
2022/09/25 15:25:10;;;;;;;2.28;1.40;;;;;;;;;;4990926;28;20240;-73
2022/09/25 15:27:41;;;;;;;3.28;1.75;;;;;;;;;;4974084;28;20219;-78
2022/09/25 15:30:13;;;;;;;2.53;1.77;;;;;;;;;;4960479;28;20221;-74